Time;durP1;ratioP1;P1;durP2;ratioP2;P2;SDS_P1;SDS_P2;PMS_P1;PMS_P2;Temp;Humidity;BMP_temperature;BMP_pressure;BME280_temperature;BME280_humidity;BME280_pressure;Samples;Min_cycle;Max_cycle;Signal;HPM_P1;HPM_P2
2021/09/07 00:00:26;;;;;;;34.72;12.25;;;;;;;;;;4950029;28;20031;-79
2021/09/07 00:02:51;;;;;;;26.73;11.63;;;;;;;;;;4944545;28;20035;-79
2021/09/07 00:05:17;;;;;;;32.55;12.38;;;;;;;;;;4945302;28;20489;-79
2021/09/07 00:07:42;;;;;;;28.35;12.25;;;;;;;;;;4932804;28;20031;-79
2021/09/07 00:10:10;;;;;;;30.20;12.88;;;;;;;;;;4941553;28;20028;-79
2021/09/07 00:12:36;;;;;;;35.78;12.05;;;;;;;;;;4951170;28;20070;-79
2021/09/07 00:15:03;;;;;;;32.17;12.32;;;;;;;;;;4946521;28;20030;-79
2021/09/07 00:17:29;;;;;;;28.98;11.05;;;;;;;;;;4942009;28;20065;-79
2021/09/07 00:19:54;;;;;;;37.15;12.93;;;;;;;;;;4929715;29;20505;-78
2021/09/07 00:22:20;;;;;;;37.35;12.52;;;;;;;;;;4947568;28;20042;-79
2021/09/07 00:24:45;;;;;;;37.28;12.40;;;;;;;;;;4950153;28;20027;-79
2021/09/07 00:27:11;;;;;;;33.58;12.80;;;;;;;;;;4939273;28;20039;-79
2021/09/07 00:29:36;;;;;;;35.13;13.57;;;;;;;;;;4940949;28;20122;-79
2021/09/07 00:32:02;;;;;;;33.88;14.52;;;;;;;;;;4950999;28;20671;-78
2021/09/07 00:34:27;;;;;;;35.10;13.35;;;;;;;;;;4939468;28;20049;-79
2021/09/07 00:36:53;;;;;;;31.85;13.30;;;;;;;;;;4945087;28;20027;-78
2021/09/07 00:39:18;;;;;;;39.13;14.02;;;;;;;;;;4945061;28;20555;-80
2021/09/07 00:41:44;;;;;;;42.30;15.60;;;;;;;;;;4922354;28;20050;-80
2021/09/07 00:44:17;;;;;;;35.55;15.90;;;;;;;;;;4947424;28;20047;-79
2021/09/07 00:46:49;;;;;;;37.88;14.88;;;;;;;;;;4951244;28;20054;-79
2021/09/07 00:49:15;;;;;;;42.22;16.40;;;;;;;;;;4945813;28;20051;-79
2021/09/07 00:51:42;;;;;;;46.45;16.98;;;;;;;;;;4943765;28;20035;-79
2021/09/07 00:54:09;;;;;;;43.38;17.45;;;;;;;;;;4948355;28;20386;-79
2021/09/07 00:56:35;;;;;;;39.70;15.05;;;;;;;;;;4945283;28;20032;-80
2021/09/07 00:59:02;;;;;;;43.42;16.05;;;;;;;;;;4944448;28;20039;-79
2021/09/07 01:01:27;;;;;;;40.28;15.85;;;;;;;;;;4937615;28;20042;-80
2021/09/07 01:03:53;;;;;;;38.40;15.75;;;;;;;;;;4943875;28;20491;-80
2021/09/07 01:06:18;;;;;;;37.35;15.18;;;;;;;;;;4938965;28;20032;-79
2021/09/07 01:08:44;;;;;;;45.88;16.48;;;;;;;;;;4947483;28;20043;-80
2021/09/07 01:11:09;;;;;;;37.30;15.00;;;;;;;;;;4924722;29;20058;-80
2021/09/07 01:13:35;;;;;;;38.08;15.18;;;;;;;;;;4947089;28;20035;-79
2021/09/07 01:16:01;;;;;;;37.25;16.23;;;;;;;;;;4946420;28;20090;-79
2021/09/07 01:18:26;;;;;;;38.42;15.88;;;;;;;;;;4948985;28;20027;-79
2021/09/07 01:20:52;;;;;;;37.60;15.65;;;;;;;;;;4940346;28;20078;-78
2021/09/07 01:23:18;;;;;;;39.25;16.52;;;;;;;;;;4946683;28;20031;-79
2021/09/07 01:25:43;;;;;;;45.50;16.63;;;;;;;;;;4945035;28;20081;-80
2021/09/07 01:28:12;;;;;;;43.28;15.45;;;;;;;;;;4944860;28;20617;-80
2021/09/07 01:30:38;;;;;;;39.95;16.05;;;;;;;;;;4945247;28;20115;-79
2021/09/07 01:33:04;;;;;;;38.28;16.77;;;;;;;;;;4940697;28;20130;-79
2021/09/07 01:35:29;;;;;;;39.17;15.35;;;;;;;;;;4939298;28;20024;-80
2021/09/07 01:37:55;;;;;;;37.72;15.40;;;;;;;;;;4930336;29;20040;-79
2021/09/07 01:40:20;;;;;;;45.95;14.57;;;;;;;;;;4945058;28;20552;-79
2021/09/07 01:42:45;;;;;;;44.38;17.40;;;;;;;;;;4944729;28;20109;-79
2021/09/07 01:45:12;;;;;;;43.22;15.90;;;;;;;;;;4948326;28;20034;-79
2021/09/07 01:47:39;;;;;;;39.05;16.13;;;;;;;;;;4944543;28;20031;-79
2021/09/07 01:50:05;;;;;;;37.75;13.82;;;;;;;;;;4945042;28;20019;-79
2021/09/07 01:52:31;;;;;;;48.88;17.05;;;;;;;;;;4946390;28;20138;-79
2021/09/07 01:54:56;;;;;;;39.05;15.98;;;;;;;;;;4950277;28;20158;-79
2021/09/07 01:57:22;;;;;;;38.42;15.82;;;;;;;;;;4944326;28;20517;-79
2021/09/07 01:59:48;;;;;;;37.53;14.70;;;;;;;;;;4944923;28;20587;-80
2021/09/07 02:02:13;;;;;;;35.13;14.68;;;;;;;;;;4936737;28;20042;-80
2021/09/07 02:04:39;;;;;;;39.15;15.32;;;;;;;;;;4947654;28;20039;-80
2021/09/07 02:07:05;;;;;;;35.17;15.32;;;;;;;;;;4921918;29;20058;-80
2021/09/07 02:09:30;;;;;;;34.47;14.45;;;;;;;;;;4944046;28;20159;-80
2021/09/07 02:11:56;;;;;;;39.30;15.25;;;;;;;;;;4943777;28;20072;-80
2021/09/07 02:14:22;;;;;;;40.05;15.95;;;;;;;;;;4925291;29;20449;-80
2021/09/07 02:16:47;;;;;;;35.72;15.80;;;;;;;;;;4948139;28;20540;-79
2021/09/07 02:19:12;;;;;;;40.85;16.77;;;;;;;;;;4941449;28;20038;-79
2021/09/07 02:21:38;;;;;;;40.72;16.05;;;;;;;;;;4936969;28;20023;-80
2021/09/07 02:24:04;;;;;;;44.03;15.77;;;;;;;;;;4935214;28;20040;-80
2021/09/07 02:26:29;;;;;;;38.30;16.05;;;;;;;;;;4943687;28;20035;-80
2021/09/07 02:28:55;;;;;;;37.75;15.98;;;;;;;;;;4939964;28;20042;-80
2021/09/07 02:31:20;;;;;;;40.33;14.90;;;;;;;;;;4945983;28;20800;-80
2021/09/07 02:33:46;;;;;;;31.52;13.85;;;;;;;;;;4918764;28;20047;-80
2021/09/07 02:36:11;;;;;;;38.80;15.35;;;;;;;;;;4935129;28;20544;-80
2021/09/07 02:38:37;;;;;;;37.08;14.60;;;;;;;;;;4929225;29;20039;-79
2021/09/07 02:41:02;;;;;;;39.22;15.20;;;;;;;;;;4943580;28;20037;-80
2021/09/07 02:43:28;;;;;;;48.88;15.75;;;;;;;;;;4946245;28;20785;-79
2021/09/07 02:45:54;;;;;;;47.03;16.63;;;;;;;;;;4922894;28;20043;-79
2021/09/07 02:48:20;;;;;;;95.65;17.73;;;;;;;;;;4949093;28;20095;-79
2021/09/07 02:50:46;;;;;;;59.58;17.58;;;;;;;;;;4949021;28;20031;-80
2021/09/07 02:53:12;;;;;;;118.03;18.92;;;;;;;;;;4946840;28;20055;-79
2021/09/07 02:55:37;;;;;;;83.75;18.25;;;;;;;;;;4946289;28;20075;-79
2021/09/07 02:58:04;;;;;;;122.60;19.40;;;;;;;;;;4950244;28;20035;-79
2021/09/07 03:00:30;;;;;;;105.57;20.42;;;;;;;;;;4931671;29;20576;-79
2021/09/07 03:02:55;;;;;;;134.85;20.08;;;;;;;;;;4947197;28;20139;-78
2021/09/07 03:05:21;;;;;;;179.43;21.02;;;;;;;;;;4946394;28;20567;-79
2021/09/07 03:07:46;;;;;;;216.88;24.73;;;;;;;;;;4930744;28;20043;-79
2021/09/07 03:10:12;;;;;;;193.68;22.48;;;;;;;;;;4944321;28;20059;-79
2021/09/07 03:12:38;;;;;;;263.38;26.33;;;;;;;;;;4943369;28;20027;-79
2021/09/07 03:15:04;;;;;;;155.27;20.92;;;;;;;;;;4942063;28;20039;-79
2021/09/07 03:17:29;;;;;;;229.77;23.05;;;;;;;;;;4947609;28;20034;-79
2021/09/07 03:19:54;;;;;;;183.52;22.75;;;;;;;;;;4924341;29;20123;-79
2021/09/07 03:22:20;;;;;;;197.57;23.38;;;;;;;;;;4923433;28;20035;-79
2021/09/07 03:28:07;;;;;;;214.93;23.30;;;;;;;;;;4947592;28;20074;-79
2021/09/07 03:30:33;;;;;;;192.90;21.27;;;;;;;;;;4929328;28;20032;-80
2021/09/07 03:32:59;;;;;;;208.75;21.88;;;;;;;;;;4952488;28;20058;-79
2021/09/07 03:35:24;;;;;;;154.13;20.85;;;;;;;;;;4951781;28;20031;-79
2021/09/07 03:37:50;;;;;;;142.35;21.00;;;;;;;;;;4951879;28;20035;-79
2021/09/07 03:40:15;;;;;;;102.72;20.05;;;;;;;;;;4948397;28;20041;-79
2021/09/07 03:42:41;;;;;;;118.63;20.67;;;;;;;;;;4933619;28;20035;-79
2021/09/07 03:45:11;;;;;;;148.23;22.10;;;;;;;;;;4947203;28;20066;-79
2021/09/07 03:47:38;;;;;;;72.07;21.25;;;;;;;;;;4954206;28;20035;-79
2021/09/07 03:50:03;;;;;;;87.55;20.75;;;;;;;;;;4960210;28;20032;-79
2021/09/07 03:52:29;;;;;;;101.35;21.20;;;;;;;;;;4951698;28;20110;-79
2021/09/07 03:54:56;;;;;;;81.13;20.85;;;;;;;;;;4934807;28;20085;-79
2021/09/07 03:57:22;;;;;;;91.85;23.17;;;;;;;;;;4947678;28;20140;-79
2021/09/07 03:59:47;;;;;;;103.20;21.25;;;;;;;;;;4947684;28;20055;-79
2021/09/07 04:02:13;;;;;;;130.35;21.85;;;;;;;;;;4946898;28;20011;-80
2021/09/07 04:04:38;;;;;;;159.38;22.33;;;;;;;;;;4949528;28;20476;-80
2021/09/07 04:07:04;;;;;;;101.57;19.42;;;;;;;;;;4948915;28;20677;-79
2021/09/07 04:09:29;;;;;;;179.82;21.55;;;;;;;;;;4929587;28;20038;-79
2021/09/07 04:11:55;;;;;;;117.40;20.25;;;;;;;;;;4945029;28;20046;-79
2021/09/07 04:14:20;;;;;;;100.60;20.60;;;;;;;;;;4947773;28;20150;-79
2021/09/07 04:16:46;;;;;;;219.07;21.60;;;;;;;;;;4932084;29;20038;-79
2021/09/07 04:19:11;;;;;;;105.75;20.05;;;;;;;;;;4944548;28;20416;-79
2021/09/07 04:21:37;;;;;;;125.47;21.60;;;;;;;;;;4945595;28;20031;-79
2021/09/07 04:24:06;;;;;;;181.18;22.10;;;;;;;;;;4948738;28;20031;-79
2021/09/07 04:26:32;;;;;;;193.73;20.83;;;;;;;;;;4954945;28;20062;-79
2021/09/07 04:28:58;;;;;;;194.02;20.15;;;;;;;;;;4955308;28;20067;-79
2021/09/07 04:31:23;;;;;;;205.48;20.98;;;;;;;;;;4945466;28;20042;-79
2021/09/07 04:33:49;;;;;;;197.48;22.80;;;;;;;;;;4934523;28;20031;-80
2021/09/07 04:36:15;;;;;;;206.38;22.25;;;;;;;;;;4953857;28;20171;-79
2021/09/07 04:38:40;;;;;;;127.63;21.65;;;;;;;;;;4931298;28;20039;-79
2021/09/07 04:41:06;;;;;;;127.45;23.42;;;;;;;;;;4950414;28;20046;-79
2021/09/07 04:43:31;;;;;;;161.57;22.40;;;;;;;;;;4946496;28;20118;-79
2021/09/07 04:45:57;;;;;;;203.38;23.52;;;;;;;;;;4957139;28;20023;-79
2021/09/07 04:48:23;;;;;;;117.68;22.65;;;;;;;;;;4931767;29;20696;-78
2021/09/07 04:50:48;;;;;;;94.90;20.88;;;;;;;;;;4936092;28;20036;-79
2021/09/07 04:53:14;;;;;;;102.53;20.30;;;;;;;;;;4952769;28;20104;-77
2021/09/07 04:55:39;;;;;;;84.45;20.85;;;;;;;;;;4954520;28;20118;-79
2021/09/07 04:58:05;;;;;;;141.57;20.90;;;;;;;;;;4947072;28;20030;-80
2021/09/07 05:00:30;;;;;;;160.88;24.48;;;;;;;;;;4936469;28;20090;-80
2021/09/07 05:02:56;;;;;;;144.35;21.95;;;;;;;;;;4952899;28;20038;-78
2021/09/07 05:05:21;;;;;;;97.18;22.45;;;;;;;;;;4948589;28;20036;-79
2021/09/07 05:07:47;;;;;;;87.18;21.65;;;;;;;;;;4925790;29;20032;-79
2021/09/07 05:10:12;;;;;;;286.98;24.27;;;;;;;;;;4927023;28;20039;-79
2021/09/07 05:12:38;;;;;;;70.70;21.92;;;;;;;;;;4956156;28;20030;-79
2021/09/07 05:15:05;;;;;;;92.05;23.10;;;;;;;;;;4950828;28;20054;-79
2021/09/07 05:17:30;;;;;;;88.47;20.48;;;;;;;;;;4951822;28;20050;-79
2021/09/07 05:19:56;;;;;;;86.35;21.50;;;;;;;;;;4945564;28;20035;-79
2021/09/07 05:22:21;;;;;;;184.55;23.33;;;;;;;;;;4949094;28;20031;-79
2021/09/07 05:24:47;;;;;;;113.50;20.27;;;;;;;;;;4953778;28;20039;-78
2021/09/07 05:27:12;;;;;;;130.18;21.50;;;;;;;;;;4945497;28;20058;-80
2021/09/07 05:29:38;;;;;;;193.88;22.92;;;;;;;;;;4942162;28;20546;-79
2021/09/07 05:32:03;;;;;;;123.63;21.70;;;;;;;;;;4947650;28;20031;-77
2021/09/07 05:34:30;;;;;;;138.07;20.40;;;;;;;;;;4941471;28;20035;-80
2021/09/07 05:36:56;;;;;;;118.93;19.73;;;;;;;;;;4953769;28;20160;-79
2021/09/07 05:39:23;;;;;;;134.88;21.55;;;;;;;;;;4943379;28;20045;-77
2021/09/07 05:41:49;;;;;;;72.43;21.20;;;;;;;;;;4933745;28;20031;-78
2021/09/07 05:44:15;;;;;;;173.52;21.98;;;;;;;;;;4946503;28;20532;-79
2021/09/07 05:46:40;;;;;;;176.07;21.95;;;;;;;;;;4944773;28;20115;-79
2021/09/07 05:49:06;;;;;;;110.03;20.95;;;;;;;;;;4945825;28;20037;-79
2021/09/07 05:51:31;;;;;;;138.93;21.63;;;;;;;;;;4948626;28;20035;-79
2021/09/07 05:53:57;;;;;;;66.00;20.02;;;;;;;;;;4946679;28;20057;-79
2021/09/07 05:56:23;;;;;;;171.07;23.40;;;;;;;;;;4924755;29;20032;-79
2021/09/07 05:58:49;;;;;;;117.72;20.63;;;;;;;;;;4932420;28;20058;-79
2021/09/07 06:01:14;;;;;;;46.95;18.67;;;;;;;;;;4942101;28;20062;-78
2021/09/07 06:03:39;;;;;;;227.30;23.35;;;;;;;;;;4946468;28;20094;-79
2021/09/07 06:06:05;;;;;;;111.03;19.13;;;;;;;;;;4949445;28;20039;-79
2021/09/07 06:08:31;;;;;;;57.90;18.65;;;;;;;;;;4941359;28;20113;-79
2021/09/07 06:10:56;;;;;;;118.25;20.65;;;;;;;;;;4930710;29;20483;-79
2021/09/07 06:13:22;;;;;;;91.50;18.90;;;;;;;;;;4941428;28;20043;-79
2021/09/07 06:15:49;;;;;;;152.98;20.42;;;;;;;;;;4934951;29;20035;-79
2021/09/07 06:18:14;;;;;;;130.18;20.02;;;;;;;;;;4949120;28;20485;-79
2021/09/07 06:20:39;;;;;;;172.80;20.48;;;;;;;;;;4937717;28;20086;-79
2021/09/07 06:23:05;;;;;;;119.35;18.70;;;;;;;;;;4952112;28;20516;-79
2021/09/07 06:25:31;;;;;;;173.35;20.23;;;;;;;;;;4953695;28;20015;-79
2021/09/07 06:27:56;;;;;;;99.78;17.50;;;;;;;;;;4954826;28;20126;-79
2021/09/07 06:30:22;;;;;;;160.65;19.90;;;;;;;;;;4954834;28;20026;-78
2021/09/07 06:32:47;;;;;;;157.38;17.63;;;;;;;;;;4949540;28;20519;-78
2021/09/07 06:35:12;;;;;;;120.45;17.98;;;;;;;;;;4948120;28;20038;-79
2021/09/07 06:37:38;;;;;;;99.03;17.58;;;;;;;;;;4956974;28;20039;-79
2021/09/07 06:40:05;;;;;;;185.43;19.10;;;;;;;;;;4956599;28;20031;-78
2021/09/07 06:42:31;;;;;;;151.55;17.02;;;;;;;;;;4955797;28;20055;-78
2021/09/07 06:44:57;;;;;;;113.88;17.60;;;;;;;;;;4948171;28;20067;-78
2021/09/07 06:47:22;;;;;;;115.50;16.95;;;;;;;;;;4958786;28;20085;-79
2021/09/07 06:49:48;;;;;;;137.15;19.70;;;;;;;;;;4933121;28;20031;-78
2021/09/07 06:52:13;;;;;;;76.97;17.05;;;;;;;;;;4938307;29;20059;-78
2021/09/07 06:54:39;;;;;;;100.13;18.27;;;;;;;;;;4946314;28;20019;-79
2021/09/07 06:57:04;;;;;;;102.80;19.35;;;;;;;;;;4957358;28;20031;-79
2021/09/07 06:59:30;;;;;;;160.50;18.65;;;;;;;;;;4950342;28;20049;-79
2021/09/07 07:01:55;;;;;;;111.80;16.52;;;;;;;;;;4947595;28;20062;-79
2021/09/07 07:04:21;;;;;;;85.63;15.95;;;;;;;;;;4949175;28;20035;-78
2021/09/07 07:06:46;;;;;;;82.65;16.13;;;;;;;;;;4951409;28;20075;-79
2021/09/07 07:09:12;;;;;;;122.53;15.65;;;;;;;;;;4945168;28;20031;-78
2021/09/07 07:11:37;;;;;;;79.35;15.95;;;;;;;;;;4946327;28;20043;-78
2021/09/07 07:14:03;;;;;;;70.50;16.20;;;;;;;;;;4948901;28;20039;-78
2021/09/07 07:16:28;;;;;;;81.70;16.35;;;;;;;;;;4947614;28;20046;-78
2021/09/07 07:18:54;;;;;;;81.65;15.23;;;;;;;;;;4937030;29;20039;-78
2021/09/07 07:21:19;;;;;;;102.72;15.88;;;;;;;;;;4931364;29;20517;-78
2021/09/07 07:23:45;;;;;;;97.22;15.52;;;;;;;;;;4951542;28;20118;-78
2021/09/07 07:26:10;;;;;;;64.38;16.05;;;;;;;;;;4928432;29;20035;-78
2021/09/07 07:28:36;;;;;;;66.07;17.30;;;;;;;;;;4929597;29;20115;-78
2021/09/07 07:31:02;;;;;;;67.25;16.08;;;;;;;;;;4951455;28;20130;-78
2021/09/07 07:33:27;;;;;;;83.18;16.92;;;;;;;;;;4949100;28;20448;-78
2021/09/07 07:35:52;;;;;;;72.20;17.20;;;;;;;;;;4943255;28;20031;-78
2021/09/07 07:38:18;;;;;;;73.25;17.67;;;;;;;;;;4937338;29;20051;-78
2021/09/07 07:40:45;;;;;;;62.88;18.98;;;;;;;;;;4950665;28;20104;-78
2021/09/07 07:43:10;;;;;;;182.15;19.52;;;;;;;;;;4938116;28;20655;-78
2021/09/07 07:45:41;;;;;;;72.65;18.25;;;;;;;;;;4943703;28;20035;-78
2021/09/07 07:48:07;;;;;;;105.37;19.90;;;;;;;;;;4947368;28;20574;-78
2021/09/07 07:50:33;;;;;;;70.80;19.42;;;;;;;;;;4940856;28;20035;-78
2021/09/07 07:53:02;;;;;;;123.93;18.10;;;;;;;;;;4950619;28;20051;-77
2021/09/07 07:55:28;;;;;;;102.88;19.20;;;;;;;;;;4952580;28;20026;-78
2021/09/07 07:57:53;;;;;;;98.63;19.98;;;;;;;;;;4952426;28;20403;-78
2021/09/07 08:00:19;;;;;;;126.40;19.60;;;;;;;;;;4954798;28;20039;-78
2021/09/07 08:02:45;;;;;;;122.05;22.55;;;;;;;;;;4948954;28;20497;-78
2021/09/07 08:05:10;;;;;;;121.35;22.83;;;;;;;;;;4947135;28;20035;-78
2021/09/07 08:07:36;;;;;;;101.93;24.13;;;;;;;;;;4952340;28;20061;-78
2021/09/07 08:10:01;;;;;;;102.88;23.55;;;;;;;;;;4948962;28;20031;-77
2021/09/07 08:12:27;;;;;;;107.45;23.85;;;;;;;;;;4950775;28;20030;-77
2021/09/07 08:14:53;;;;;;;121.10;24.25;;;;;;;;;;4950212;28;20496;-77
2021/09/07 08:17:18;;;;;;;93.90;25.38;;;;;;;;;;4954603;28;20062;-78
2021/09/07 08:19:43;;;;;;;78.72;24.15;;;;;;;;;;4948552;28;20122;-77
2021/09/07 08:22:14;;;;;;;81.07;24.65;;;;;;;;;;4956164;28;20043;-78
2021/09/07 08:24:39;;;;;;;92.40;25.48;;;;;;;;;;4953350;28;20039;-78
2021/09/07 08:27:05;;;;;;;96.95;28.30;;;;;;;;;;4944330;28;20817;-78
2021/09/07 08:29:31;;;;;;;80.38;24.60;;;;;;;;;;4957800;28;20178;-78
2021/09/07 08:31:57;;;;;;;90.88;26.60;;;;;;;;;;4955008;28;20039;-78
2021/09/07 08:34:23;;;;;;;69.43;22.77;;;;;;;;;;4943318;28;20027;-78
2021/09/07 08:36:49;;;;;;;69.07;22.33;;;;;;;;;;4941055;28;20028;-78
2021/09/07 08:39:16;;;;;;;72.35;23.98;;;;;;;;;;4952624;28;20031;-78
2021/09/07 08:41:42;;;;;;;62.40;20.77;;;;;;;;;;4939866;28;20093;-78
2021/09/07 08:44:07;;;;;;;62.22;21.00;;;;;;;;;;4954549;28;20097;-78
2021/09/07 08:46:33;;;;;;;70.70;22.52;;;;;;;;;;4952354;28;20118;-78
2021/09/07 08:48:59;;;;;;;63.63;22.65;;;;;;;;;;4948737;28;20041;-79
2021/09/07 08:51:25;;;;;;;66.18;22.27;;;;;;;;;;4954859;28;20047;-78
2021/09/07 08:53:52;;;;;;;68.72;21.80;;;;;;;;;;4952453;28;20059;-79
2021/09/07 08:56:18;;;;;;;53.90;21.00;;;;;;;;;;4951781;28;20106;-78
2021/09/07 08:58:43;;;;;;;52.90;20.33;;;;;;;;;;4951434;28;20102;-78
2021/09/07 09:01:17;;;;;;;52.80;21.33;;;;;;;;;;4946134;28;20492;-78
2021/09/07 09:03:44;;;;;;;61.78;22.88;;;;;;;;;;4947073;28;20019;-79
2021/09/07 09:06:10;;;;;;;68.05;25.92;;;;;;;;;;4947457;28;20039;-78
2021/09/07 09:08:37;;;;;;;70.22;26.27;;;;;;;;;;4951382;28;20038;-79
2021/09/07 09:11:11;;;;;;;69.05;25.30;;;;;;;;;;4948829;28;20039;-80
2021/09/07 09:13:47;;;;;;;68.43;26.35;;;;;;;;;;4949684;28;20028;-79
2021/09/07 09:16:15;;;;;;;62.13;26.17;;;;;;;;;;4946501;28;20063;-79
2021/09/07 09:18:43;;;;;;;67.05;24.77;;;;;;;;;;4949193;28;20027;-77
2021/09/07 09:21:24;;;;;;;68.50;24.55;;;;;;;;;;4946574;28;20023;-79
2021/09/07 09:24:19;;;;;;;60.53;24.73;;;;;;;;;;4952452;28;20497;-79
2021/09/07 09:27:03;;;;;;;63.10;25.08;;;;;;;;;;4950402;28;20035;-78
2021/09/07 09:29:30;;;;;;;62.58;24.65;;;;;;;;;;4938108;28;20035;-78
2021/09/07 09:32:07;;;;;;;67.45;26.92;;;;;;;;;;4945520;28;20034;-77
2021/09/07 09:34:35;;;;;;;58.03;24.75;;;;;;;;;;4943090;28;20095;-79
2021/09/07 09:37:04;;;;;;;58.38;24.23;;;;;;;;;;4949692;28;20047;-78
2021/09/07 09:39:51;;;;;;;65.22;25.65;;;;;;;;;;4944950;28;20074;-79
2021/09/07 09:42:26;;;;;;;59.30;24.35;;;;;;;;;;4938860;28;20027;-78
2021/09/07 09:45:07;;;;;;;58.10;23.17;;;;;;;;;;4945509;28;20122;-78
2021/09/07 09:47:41;;;;;;;49.38;22.15;;;;;;;;;;4944897;28;20034;-79
2021/09/07 09:50:08;;;;;;;48.10;21.08;;;;;;;;;;4940552;28;20032;-79
2021/09/07 09:52:38;;;;;;;45.22;20.20;;;;;;;;;;4949375;28;20043;-80
2021/09/07 09:55:06;;;;;;;45.83;18.13;;;;;;;;;;4946627;28;20073;-79
2021/09/07 09:57:35;;;;;;;40.00;17.77;;;;;;;;;;4940051;28;20644;-79
2021/09/07 10:00:03;;;;;;;40.03;15.35;;;;;;;;;;4944362;28;20101;-79
2021/09/07 10:02:32;;;;;;;34.17;15.65;;;;;;;;;;4942971;28;20086;-80
2021/09/07 10:04:59;;;;;;;31.52;14.82;;;;;;;;;;4951082;28;20023;-80
2021/09/07 10:07:28;;;;;;;31.77;13.52;;;;;;;;;;4943650;28;20611;-79
2021/09/07 10:09:57;;;;;;;30.58;13.38;;;;;;;;;;4938762;28;20130;-78
2021/09/07 10:12:36;;;;;;;25.00;11.95;;;;;;;;;;4941212;28;20035;-79
2021/09/07 10:15:10;;;;;;;31.30;14.57;;;;;;;;;;4947269;28;20029;-79
2021/09/07 10:17:48;;;;;;;31.98;13.25;;;;;;;;;;4939342;28;20024;-80
2021/09/07 10:20:35;;;;;;;25.73;12.27;;;;;;;;;;4947788;28;20053;-78
2021/09/07 10:25:48;;;;;;;27.90;11.82;;;;;;;;;;4937527;28;20047;-79
2021/09/07 10:28:36;;;;;;;24.52;12.27;;;;;;;;;;4941425;28;20031;-80
2021/09/07 10:31:19;;;;;;;32.63;12.13;;;;;;;;;;4950224;28;20625;-79
2021/09/07 10:33:56;;;;;;;26.67;10.55;;;;;;;;;;4948484;28;20027;-79
2021/09/07 10:36:31;;;;;;;23.20;10.85;;;;;;;;;;4924264;28;20066;-80
2021/09/07 10:38:58;;;;;;;22.55;11.02;;;;;;;;;;4927478;28;20043;-79
2021/09/07 10:41:32;;;;;;;19.83;10.07;;;;;;;;;;4942584;28;20027;-79
2021/09/07 10:44:07;;;;;;;19.55;10.10;;;;;;;;;;4953933;28;20176;-79
2021/09/07 10:46:46;;;;;;;25.02;11.27;;;;;;;;;;4949058;28;20110;-82
2021/09/07 10:49:15;;;;;;;21.20;9.63;;;;;;;;;;4942270;28;20619;-81
2021/09/07 10:52:09;;;;;;;20.75;10.13;;;;;;;;;;4946494;28;20396;-80
2021/09/07 10:55:21;;;;;;;17.20;8.65;;;;;;;;;;4946681;28;20047;-81
2021/09/07 10:57:49;;;;;;;21.17;10.00;;;;;;;;;;4962609;28;20042;-80
2021/09/07 11:00:18;;;;;;;26.40;9.75;;;;;;;;;;4944434;28;20034;-80
2021/09/07 11:02:46;;;;;;;17.25;9.20;;;;;;;;;;4949441;28;20027;-81
2021/09/07 11:05:36;;;;;;;33.80;11.45;;;;;;;;;;4934942;28;20576;-79
2021/09/07 11:08:04;;;;;;;21.05;9.30;;;;;;;;;;4944945;28;20483;-80
2021/09/07 11:10:37;;;;;;;22.65;11.30;;;;;;;;;;4942457;28;20027;-79
2021/09/07 11:13:03;;;;;;;25.90;11.05;;;;;;;;;;4948920;28;20062;-78
2021/09/07 11:15:32;;;;;;;26.73;12.00;;;;;;;;;;4946095;28;20019;-80
2021/09/07 11:18:03;;;;;;;28.63;12.73;;;;;;;;;;4946972;28;20033;-79
2021/09/07 11:20:35;;;;;;;24.20;10.98;;;;;;;;;;4950592;28;20036;-81
2021/09/07 11:23:14;;;;;;;;;;;;;;;;;;4952185;28;20267;-80
2021/09/07 11:25:49;;;;;;;34.50;13.00;;;;;;;;;;4943672;28;19922;-80
2021/09/07 11:28:17;;;;;;;30.23;12.23;;;;;;;;;;4943141;28;20052;-79
2021/09/07 11:30:51;;;;;;;26.60;12.25;;;;;;;;;;4951833;28;20579;-79
2021/09/07 11:33:18;;;;;;;26.98;12.55;;;;;;;;;;4947398;28;20035;-80
2021/09/07 11:35:52;;;;;;;29.80;12.30;;;;;;;;;;4945632;28;20020;-79
2021/09/07 11:38:20;;;;;;;27.00;13.32;;;;;;;;;;4947382;28;20082;-79
2021/09/07 11:40:54;;;;;;;37.88;15.10;;;;;;;;;;4946783;28;20058;-79
2021/09/07 11:43:55;;;;;;;32.05;14.68;;;;;;;;;;4947857;28;20423;-79
2021/09/07 11:46:37;;;;;;;29.58;13.63;;;;;;;;;;4939592;28;20118;-80
2021/09/07 11:49:06;;;;;;;;;;;;;;;;;;4944952;28;20589;-81
2021/09/07 11:51:34;;;;;;;29.20;12.70;;;;;;;;;;4955574;28;19914;-80
2021/09/07 11:54:05;;;;;;;33.10;13.35;;;;;;;;;;4947653;28;20532;-80
2021/09/07 11:56:32;;;;;;;36.90;13.57;;;;;;;;;;4943236;28;20163;-81
2021/09/07 11:59:18;;;;;;;27.50;12.88;;;;;;;;;;4932354;29;20038;-80
2021/09/07 12:01:46;;;;;;;23.35;11.98;;;;;;;;;;4941455;28;20034;-80
2021/09/07 12:04:14;;;;;;;22.85;12.18;;;;;;;;;;4942195;28;20064;-81
2021/09/07 12:06:53;;;;;;;29.83;12.45;;;;;;;;;;4942487;28;20089;-83
2021/09/07 12:09:20;;;;;;;27.83;12.95;;;;;;;;;;4940940;28;20038;-80
2021/09/07 12:11:51;;;;;;;25.52;12.57;;;;;;;;;;4949378;28;20084;-82
2021/09/07 12:14:23;;;;;;;28.70;12.20;;;;;;;;;;4945524;28;20031;-80
2021/09/07 12:17:03;;;;;;;33.67;12.60;;;;;;;;;;4950725;28;20031;-80
2021/09/07 12:19:28;;;;;;;26.92;11.70;;;;;;;;;;4948367;28;20118;-80
2021/09/07 12:22:10;;;;;;;27.38;14.23;;;;;;;;;;4955007;28;20125;-80
2021/09/07 12:24:38;;;;;;;25.30;12.05;;;;;;;;;;4949429;28;20094;-80
2021/09/07 12:27:21;;;;;;;25.17;11.48;;;;;;;;;;4938516;28;20030;-81
2021/09/07 12:30:07;;;;;;;24.90;11.57;;;;;;;;;;4935754;28;20034;-80
2021/09/07 12:33:06;;;;;;;26.10;12.15;;;;;;;;;;4934529;28;20075;-80
2021/09/07 12:35:40;;;;;;;31.27;13.35;;;;;;;;;;4953597;28;20023;-81
2021/09/07 12:38:12;;;;;;;23.08;11.68;;;;;;;;;;4943673;28;20051;-82
2021/09/07 12:40:39;;;;;;;;;;;;;;;;;;4941273;28;20035;-79
2021/09/07 12:43:12;;;;;;;23.02;11.18;;;;;;;;;;4949253;28;19914;-79
2021/09/07 12:45:38;;;;;;;24.60;11.93;;;;;;;;;;4946239;28;20027;-82
2021/09/07 12:48:04;;;;;;;19.33;10.32;;;;;;;;;;4951847;28;20038;-81
2021/09/07 12:50:30;;;;;;;25.95;10.80;;;;;;;;;;4943639;28;20567;-80
2021/09/07 12:52:56;;;;;;;26.83;9.65;;;;;;;;;;4945928;28;20151;-82
2021/09/07 12:55:22;;;;;;;26.63;11.80;;;;;;;;;;4936473;28;20088;-82
2021/09/07 12:57:47;;;;;;;23.23;12.18;;;;;;;;;;4930890;29;20054;-80
2021/09/07 13:00:13;;;;;;;25.13;12.75;;;;;;;;;;4945965;28;20043;-81
2021/09/07 13:02:39;;;;;;;25.42;13.35;;;;;;;;;;4933244;28;20035;-83
2021/09/07 13:05:05;;;;;;;22.52;12.65;;;;;;;;;;4947160;28;20408;-84
2021/09/07 13:07:30;;;;;;;21.15;12.38;;;;;;;;;;4929488;29;20456;-83
2021/09/07 13:09:55;;;;;;;30.42;14.85;;;;;;;;;;4949736;28;20043;-81
2021/09/07 13:12:21;;;;;;;30.42;13.93;;;;;;;;;;4949611;28;20633;-83
2021/09/07 13:14:46;;;;;;;36.38;16.45;;;;;;;;;;4953609;28;20031;-81
2021/09/07 13:17:12;;;;;;;28.60;14.73;;;;;;;;;;4928493;28;20036;-82
2021/09/07 13:19:39;;;;;;;31.08;15.13;;;;;;;;;;4924526;29;20028;-81
2021/09/07 13:22:05;;;;;;;36.65;16.60;;;;;;;;;;4961646;28;20122;-80
2021/09/07 13:24:31;;;;;;;30.52;15.45;;;;;;;;;;4948742;28;20027;-80
2021/09/07 13:26:56;;;;;;;32.00;17.42;;;;;;;;;;4930089;28;20054;-80
2021/09/07 13:29:22;;;;;;;32.58;16.00;;;;;;;;;;4949500;28;20031;-81
2021/09/07 13:31:47;;;;;;;34.45;17.48;;;;;;;;;;4939372;28;20039;-82
2021/09/07 13:34:13;;;;;;;35.50;16.77;;;;;;;;;;4949771;28;20456;-78
2021/09/07 13:36:38;;;;;;;33.55;17.88;;;;;;;;;;4932644;28;20067;-81
2021/09/07 13:39:04;;;;;;;33.25;17.48;;;;;;;;;;4949753;28;20043;-81
2021/09/07 13:41:29;;;;;;;29.90;15.98;;;;;;;;;;4948121;28;20041;-81
2021/09/07 13:43:55;;;;;;;38.03;17.45;;;;;;;;;;4948796;28;20034;-81
2021/09/07 13:46:20;;;;;;;39.42;16.77;;;;;;;;;;4949313;28;20716;-78
2021/09/07 13:48:45;;;;;;;37.53;16.83;;;;;;;;;;4934145;28;20131;-79
2021/09/07 13:51:11;;;;;;;28.70;15.07;;;;;;;;;;4945892;28;20047;-80
2021/09/07 13:53:37;;;;;;;29.77;15.60;;;;;;;;;;4940038;28;20078;-81
2021/09/07 13:56:02;;;;;;;29.95;15.52;;;;;;;;;;4948411;28;20419;-79
2021/09/07 13:58:28;;;;;;;26.58;14.23;;;;;;;;;;4949655;28;20465;-80
2021/09/07 14:00:53;;;;;;;23.92;13.20;;;;;;;;;;4940480;28;20039;-80
2021/09/07 14:03:19;;;;;;;26.20;14.68;;;;;;;;;;4943537;28;20090;-80
2021/09/07 14:05:45;;;;;;;26.05;14.65;;;;;;;;;;4937001;28;20032;-80
2021/09/07 14:08:10;;;;;;;29.27;15.23;;;;;;;;;;4940050;28;20448;-81
2021/09/07 14:10:36;;;;;;;29.23;15.68;;;;;;;;;;4934428;28;20036;-80
2021/09/07 14:13:02;;;;;;;29.10;15.15;;;;;;;;;;4946842;28;20094;-80
2021/09/07 14:15:28;;;;;;;33.78;17.02;;;;;;;;;;4945278;28;20060;-82
2021/09/07 14:17:54;;;;;;;34.90;17.52;;;;;;;;;;4940447;28;20097;-82
2021/09/07 14:20:20;;;;;;;33.15;16.45;;;;;;;;;;4940234;28;20853;-81
2021/09/07 14:22:46;;;;;;;33.45;17.60;;;;;;;;;;4946633;28;20027;-81
2021/09/07 14:25:12;;;;;;;30.60;15.27;;;;;;;;;;4928070;29;20063;-80